sensor_id;sensor_type;location;lat;lon;timestamp;temperature;humidity
24382;DHT22;12502;50.678;7.172;2023-11-21T00:00:32;8.50;99.90
24382;DHT22;12502;50.678;7.172;2023-11-21T00:05:34;8.60;99.90
24382;DHT22;12502;50.678;7.172;2023-11-21T00:10:36;8.60;99.90
24382;DHT22;12502;50.678;7.172;2023-11-21T00:15:41;8.60;99.90
24382;DHT22;12502;50.678;7.172;2023-11-21T00:20:42;8.60;99.90
24382;DHT22;12502;50.678;7.172;2023-11-21T00:25:44;8.60;99.90
24382;DHT22;12502;50.678;7.172;2023-11-21T00:30:46;8.60;99.90
24382;DHT22;12502;50.678;7.172;2023-11-21T00:35:47;8.70;99.90
24382;DHT22;12502;50.678;7.172;2023-11-21T00:40:49;8.60;99.90
24382;DHT22;12502;50.678;7.172;2023-11-21T00:45:50;8.70;99.90
24382;DHT22;12502;50.678;7.172;2023-11-21T00:50:52;8.70;99.90
24382;DHT22;12502;50.678;7.172;2023-11-21T00:55:54;8.70;99.90
24382;DHT22;12502;50.678;7.172;2023-11-21T01:00:58;8.70;99.90
24382;DHT22;12502;50.678;7.172;2023-11-21T01:06:00;8.60;99.90
24382;DHT22;12502;50.678;7.172;2023-11-21T01:11:02;8.70;99.90
24382;DHT22;12502;50.678;7.172;2023-11-21T01:16:03;8.70;99.90
24382;DHT22;12502;50.678;7.172;2023-11-21T01:21:05;8.70;99.90
24382;DHT22;12502;50.678;7.172;2023-11-21T01:26:07;8.80;99.90
24382;DHT22;12502;50.678;7.172;2023-11-21T01:31:09;8.70;99.90
24382;DHT22;12502;50.678;7.172;2023-11-21T01:36:11;8.70;99.90
24382;DHT22;12502;50.678;7.172;2023-11-21T01:41:13;8.70;99.90
24382;DHT22;12502;50.678;7.172;2023-11-21T01:46:15;8.70;99.90
24382;DHT22;12502;50.678;7.172;2023-11-21T01:51:17;8.80;99.90
24382;DHT22;12502;50.678;7.172;2023-11-21T01:56:20;8.70;99.90
24382;DHT22;12502;50.678;7.172;2023-11-21T02:01:21;8.70;99.90
24382;DHT22;12502;50.678;7.172;2023-11-21T02:06:23;8.70;99.90
24382;DHT22;12502;50.678;7.172;2023-11-21T02:11:25;8.70;99.90
24382;DHT22;12502;50.678;7.172;2023-11-21T02:16:28;8.70;99.90
24382;DHT22;12502;50.678;7.172;2023-11-21T02:21:33;8.60;99.90
24382;DHT22;12502;50.678;7.172;2023-11-21T02:26:35;8.70;99.90
24382;DHT22;12502;50.678;7.172;2023-11-21T02:31:37;8.60;99.90
24382;DHT22;12502;50.678;7.172;2023-11-21T02:36:47;8.80;99.90
24382;DHT22;12502;50.678;7.172;2023-11-21T02:41:50;8.60;99.90
24382;DHT22;12502;50.678;7.172;2023-11-21T02:46:52;8.60;99.90
24382;DHT22;12502;50.678;7.172;2023-11-21T02:51:54;8.60;99.90
24382;DHT22;12502;50.678;7.172;2023-11-21T02:56:56;8.60;99.90
24382;DHT22;12502;50.678;7.172;2023-11-21T03:01:57;8.60;99.90
24382;DHT22;12502;50.678;7.172;2023-11-21T03:06:59;8.50;99.90
24382;DHT22;12502;50.678;7.172;2023-11-21T03:12:01;8.60;99.90
24382;DHT22;12502;50.678;7.172;2023-11-21T03:17:03;8.60;99.90
24382;DHT22;12502;50.678;7.172;2023-11-21T03:22:06;8.40;99.90
24382;DHT22;12502;50.678;7.172;2023-11-21T03:27:08;8.50;99.90
24382;DHT22;12502;50.678;7.172;2023-11-21T03:32:09;8.40;99.90
24382;DHT22;12502;50.678;7.172;2023-11-21T03:37:11;8.40;99.90
24382;DHT22;12502;50.678;7.172;2023-11-21T03:42:13;8.50;99.90
24382;DHT22;12502;50.678;7.172;2023-11-21T03:47:14;8.50;99.90
24382;DHT22;12502;50.678;7.172;2023-11-21T03:52:17;8.40;99.90
24382;DHT22;12502;50.678;7.172;2023-11-21T03:57:19;8.40;99.90
24382;DHT22;12502;50.678;7.172;2023-11-21T04:02:20;8.40;99.90
24382;DHT22;12502;50.678;7.172;2023-11-21T04:07:22;8.40;99.90
24382;DHT22;12502;50.678;7.172;2023-11-21T04:12:25;8.40;99.90
24382;DHT22;12502;50.678;7.172;2023-11-21T04:17:27;8.40;99.90
24382;DHT22;12502;50.678;7.172;2023-11-21T04:22:28;8.30;99.90
24382;DHT22;12502;50.678;7.172;2023-11-21T04:27:30;8.20;99.90
24382;DHT22;12502;50.678;7.172;2023-11-21T04:32:32;8.50;99.90
24382;DHT22;12502;50.678;7.172;2023-11-21T04:37:34;8.30;99.90
24382;DHT22;12502;50.678;7.172;2023-11-21T04:42:36;8.40;99.90
24382;DHT22;12502;50.678;7.172;2023-11-21T04:47:38;8.40;99.90
24382;DHT22;12502;50.678;7.172;2023-11-21T04:52:40;8.40;99.90
24382;DHT22;12502;50.678;7.172;2023-11-21T04:57:41;8.40;99.90
24382;DHT22;12502;50.678;7.172;2023-11-21T05:02:43;8.40;99.90
24382;DHT22;12502;50.678;7.172;2023-11-21T05:07:46;8.50;99.90
24382;DHT22;12502;50.678;7.172;2023-11-21T05:12:49;8.50;99.90
24382;DHT22;12502;50.678;7.172;2023-11-21T05:17:51;8.50;99.90
24382;DHT22;12502;50.678;7.172;2023-11-21T05:22:54;8.40;99.90
24382;DHT22;12502;50.678;7.172;2023-11-21T05:27:55;8.50;99.90
24382;DHT22;12502;50.678;7.172;2023-11-21T05:32:57;8.50;99.90
24382;DHT22;12502;50.678;7.172;2023-11-21T05:37:58;8.50;99.90
24382;DHT22;12502;50.678;7.172;2023-11-21T05:43:00;8.40;99.90
24382;DHT22;12502;50.678;7.172;2023-11-21T05:48:02;8.60;99.90
24382;DHT22;12502;50.678;7.172;2023-11-21T05:53:04;8.50;99.90
24382;DHT22;12502;50.678;7.172;2023-11-21T05:58:06;8.50;99.90
24382;DHT22;12502;50.678;7.172;2023-11-21T06:03:08;8.50;99.90
24382;DHT22;12502;50.678;7.172;2023-11-21T06:08:11;8.50;99.90
24382;DHT22;12502;50.678;7.172;2023-11-21T06:13:12;8.50;99.90
24382;DHT22;12502;50.678;7.172;2023-11-21T06:18:15;8.60;99.90
24382;DHT22;12502;50.678;7.172;2023-11-21T06:23:17;8.50;99.90
24382;DHT22;12502;50.678;7.172;2023-11-21T06:28:18;8.40;99.90
24382;DHT22;12502;50.678;7.172;2023-11-21T06:38:35;8.50;99.90
24382;DHT22;12502;50.678;7.172;2023-11-21T06:43:36;8.40;99.90
24382;DHT22;12502;50.678;7.172;2023-11-21T06:48:39;8.60;99.90
24382;DHT22;12502;50.678;7.172;2023-11-21T06:53:47;8.50;99.90
24382;DHT22;12502;50.678;7.172;2023-11-21T06:58:53;8.50;99.90
24382;DHT22;12502;50.678;7.172;2023-11-21T07:03:58;8.50;99.90
24382;DHT22;12502;50.678;7.172;2023-11-21T07:09:01;8.60;99.90
24382;DHT22;12502;50.678;7.172;2023-11-21T07:19:18;8.50;99.90
24382;DHT22;12502;50.678;7.172;2023-11-21T07:24:20;8.60;99.90
24382;DHT22;12502;50.678;7.172;2023-11-21T07:29:26;8.60;99.90
24382;DHT22;12502;50.678;7.172;2023-11-21T07:34:38;8.60;99.90
24382;DHT22;12502;50.678;7.172;2023-11-21T07:39:41;8.60;99.90
24382;DHT22;12502;50.678;7.172;2023-11-21T07:44:46;8.60;99.90
24382;DHT22;12502;50.678;7.172;2023-11-21T07:49:48;8.60;99.90
24382;DHT22;12502;50.678;7.172;2023-11-21T07:54:53;8.60;99.90
24382;DHT22;12502;50.678;7.172;2023-11-21T07:59:54;8.60;99.90
24382;DHT22;12502;50.678;7.172;2023-11-21T08:04:58;8.60;99.90
24382;DHT22;12502;50.678;7.172;2023-11-21T08:15:30;8.60;99.90
24382;DHT22;12502;50.678;7.172;2023-11-21T08:20:42;8.70;99.90
24382;DHT22;12502;50.678;7.172;2023-11-21T08:31:06;8.80;99.90
24382;DHT22;12502;50.678;7.172;2023-11-21T08:36:08;8.90;99.90
24382;DHT22;12502;50.678;7.172;2023-11-21T08:41:10;9.00;99.90
24382;DHT22;12502;50.678;7.172;2023-11-21T08:46:12;9.10;99.90
24382;DHT22;12502;50.678;7.172;2023-11-21T08:51:22;9.10;99.90
24382;DHT22;12502;50.678;7.172;2023-11-21T09:01:31;9.10;99.90
24382;DHT22;12502;50.678;7.172;2023-11-21T09:06:41;9.10;99.90
24382;DHT22;12502;50.678;7.172;2023-11-21T09:11:52;9.10;99.90
24382;DHT22;12502;50.678;7.172;2023-11-21T09:22:28;9.20;99.90
24382;DHT22;12502;50.678;7.172;2023-11-21T09:27:31;9.30;99.90
24382;DHT22;12502;50.678;7.172;2023-11-21T09:32:37;9.30;99.90
24382;DHT22;12502;50.678;7.172;2023-11-21T09:37:39;9.30;99.90
24382;DHT22;12502;50.678;7.172;2023-11-21T09:42:56;9.30;99.90
24382;DHT22;12502;50.678;7.172;2023-11-21T09:47:59;9.30;99.90
24382;DHT22;12502;50.678;7.172;2023-11-21T09:53:15;9.30;99.90
24382;DHT22;12502;50.678;7.172;2023-11-21T09:58:21;9.40;99.90
24382;DHT22;12502;50.678;7.172;2023-11-21T10:03:27;9.30;99.90
24382;DHT22;12502;50.678;7.172;2023-11-21T10:08:29;9.30;99.90
24382;DHT22;12502;50.678;7.172;2023-11-21T10:13:54;9.40;99.90
24382;DHT22;12502;50.678;7.172;2023-11-21T10:18:57;9.40;99.90
24382;DHT22;12502;50.678;7.172;2023-11-21T10:24:18;9.60;99.90
24382;DHT22;12502;50.678;7.172;2023-11-21T10:34:30;9.50;99.90
24382;DHT22;12502;50.678;7.172;2023-11-21T10:39:39;9.60;99.90
24382;DHT22;12502;50.678;7.172;2023-11-21T10:44:41;9.60;99.90
24382;DHT22;12502;50.678;7.172;2023-11-21T10:49:48;9.70;99.90
24382;DHT22;12502;50.678;7.172;2023-11-21T10:54:54;9.70;99.90
24382;DHT22;12502;50.678;7.172;2023-11-21T10:59:56;9.70;99.90
24382;DHT22;12502;50.678;7.172;2023-11-21T11:04:57;9.70;99.90
24382;DHT22;12502;50.678;7.172;2023-11-21T11:10:00;9.70;99.90
24382;DHT22;12502;50.678;7.172;2023-11-21T11:15:03;9.90;99.90
24382;DHT22;12502;50.678;7.172;2023-11-21T11:25:25;10.00;99.90
24382;DHT22;12502;50.678;7.172;2023-11-21T11:35:59;10.10;99.90
24382;DHT22;12502;50.678;7.172;2023-11-21T11:41:02;10.10;99.90
24382;DHT22;12502;50.678;7.172;2023-11-21T11:46:07;10.10;99.90
24382;DHT22;12502;50.678;7.172;2023-11-21T11:51:11;10.10;99.90
24382;DHT22;12502;50.678;7.172;2023-11-21T11:56:33;10.20;99.90
24382;DHT22;12502;50.678;7.172;2023-11-21T12:01:37;10.10;99.90
24382;DHT22;12502;50.678;7.172;2023-11-21T12:06:43;10.00;99.90
24382;DHT22;12502;50.678;7.172;2023-11-21T12:11:47;10.00;99.90
24382;DHT22;12502;50.678;7.172;2023-11-21T12:16:49;10.00;99.90
24382;DHT22;12502;50.678;7.172;2023-11-21T12:21:50;10.00;99.90
24382;DHT22;12502;50.678;7.172;2023-11-21T12:26:53;10.10;99.90
24382;DHT22;12502;50.678;7.172;2023-11-21T12:31:55;10.10;99.90
24382;DHT22;12502;50.678;7.172;2023-11-21T12:37:00;10.30;99.90
24382;DHT22;12502;50.678;7.172;2023-11-21T12:42:04;10.30;99.90
24382;DHT22;12502;50.678;7.172;2023-11-21T12:47:19;10.20;99.90
24382;DHT22;12502;50.678;7.172;2023-11-21T12:52:22;10.20;99.90
24382;DHT22;12502;50.678;7.172;2023-11-21T12:57:27;10.00;99.90
24382;DHT22;12502;50.678;7.172;2023-11-21T13:02:32;10.10;99.90
24382;DHT22;12502;50.678;7.172;2023-11-21T13:07:51;10.20;99.90
24382;DHT22;12502;50.678;7.172;2023-11-21T13:12:56;10.20;99.90
24382;DHT22;12502;50.678;7.172;2023-11-21T13:17:59;10.20;99.90
24382;DHT22;12502;50.678;7.172;2023-11-21T13:23:06;10.30;99.90
24382;DHT22;12502;50.678;7.172;2023-11-21T13:28:09;10.20;99.90
24382;DHT22;12502;50.678;7.172;2023-11-21T13:33:15;10.20;99.90
24382;DHT22;12502;50.678;7.172;2023-11-21T13:38:23;10.20;99.90
24382;DHT22;12502;50.678;7.172;2023-11-21T13:43:25;10.20;99.90
24382;DHT22;12502;50.678;7.172;2023-11-21T13:48:27;10.20;99.90
24382;DHT22;12502;50.678;7.172;2023-11-21T13:53:45;10.20;99.90
24382;DHT22;12502;50.678;7.172;2023-11-21T13:58:50;10.20;99.90
24382;DHT22;12502;50.678;7.172;2023-11-21T14:03:58;10.20;99.90
24382;DHT22;12502;50.678;7.172;2023-11-21T14:09:14;10.30;99.90
24382;DHT22;12502;50.678;7.172;2023-11-21T14:14:24;10.10;99.90
24382;DHT22;12502;50.678;7.172;2023-11-21T14:19:29;10.00;99.90
24382;DHT22;12502;50.678;7.172;2023-11-21T14:24:34;10.00;99.90
24382;DHT22;12502;50.678;7.172;2023-11-21T14:29:35;10.00;99.90
24382;DHT22;12502;50.678;7.172;2023-11-21T14:34:40;10.00;99.90
24382;DHT22;12502;50.678;7.172;2023-11-21T14:39:44;10.00;99.90
24382;DHT22;12502;50.678;7.172;2023-11-21T14:44:49;10.00;99.90
24382;DHT22;12502;50.678;7.172;2023-11-21T14:49:51;10.00;99.90
24382;DHT22;12502;50.678;7.172;2023-11-21T14:54:57;9.90;99.90
24382;DHT22;12502;50.678;7.172;2023-11-21T15:00:20;9.90;99.90
24382;DHT22;12502;50.678;7.172;2023-11-21T15:05:45;9.90;99.90
24382;DHT22;12502;50.678;7.172;2023-11-21T15:10:47;9.90;99.90
24382;DHT22;12502;50.678;7.172;2023-11-21T15:15:51;9.90;99.90
24382;DHT22;12502;50.678;7.172;2023-11-21T15:20:55;9.90;99.90
24382;DHT22;12502;50.678;7.172;2023-11-21T15:25:57;9.90;99.90
24382;DHT22;12502;50.678;7.172;2023-11-21T15:30:59;9.90;99.90
24382;DHT22;12502;50.678;7.172;2023-11-21T15:36:01;9.80;99.90
24382;DHT22;12502;50.678;7.172;2023-11-21T15:41:03;9.80;99.90
24382;DHT22;12502;50.678;7.172;2023-11-21T15:46:05;9.80;99.90
24382;DHT22;12502;50.678;7.172;2023-11-21T15:51:09;9.90;99.90
24382;DHT22;12502;50.678;7.172;2023-11-21T15:56:13;9.90;99.90
24382;DHT22;12502;50.678;7.172;2023-11-21T16:01:16;9.70;99.90
24382;DHT22;12502;50.678;7.172;2023-11-21T16:06:18;9.60;99.90
24382;DHT22;12502;50.678;7.172;2023-11-21T16:11:20;9.60;99.90
24382;DHT22;12502;50.678;7.172;2023-11-21T16:16:21;9.50;99.90
24382;DHT22;12502;50.678;7.172;2023-11-21T16:21:23;9.50;99.90
24382;DHT22;12502;50.678;7.172;2023-11-21T16:26:25;9.50;99.90
24382;DHT22;12502;50.678;7.172;2023-11-21T16:31:27;9.50;99.90
24382;DHT22;12502;50.678;7.172;2023-11-21T16:36:36;9.50;99.90
24382;DHT22;12502;50.678;7.172;2023-11-21T16:41:38;9.50;99.90
24382;DHT22;12502;50.678;7.172;2023-11-21T16:46:40;9.50;99.90
24382;DHT22;12502;50.678;7.172;2023-11-21T16:51:45;9.50;99.90
24382;DHT22;12502;50.678;7.172;2023-11-21T16:56:46;9.50;99.90
24382;DHT22;12502;50.678;7.172;2023-11-21T17:01:51;9.50;99.90
24382;DHT22;12502;50.678;7.172;2023-11-21T17:06:53;9.50;99.90
24382;DHT22;12502;50.678;7.172;2023-11-21T17:11:55;9.50;99.90
24382;DHT22;12502;50.678;7.172;2023-11-21T17:16:58;9.50;99.90
24382;DHT22;12502;50.678;7.172;2023-11-21T17:22:01;9.50;99.90
24382;DHT22;12502;50.678;7.172;2023-11-21T17:27:05;9.50;99.90
24382;DHT22;12502;50.678;7.172;2023-11-21T17:32:08;9.50;99.90
24382;DHT22;12502;50.678;7.172;2023-11-21T17:37:11;9.50;99.90
24382;DHT22;12502;50.678;7.172;2023-11-21T17:42:13;9.50;99.90
24382;DHT22;12502;50.678;7.172;2023-11-21T17:47:15;9.50;99.90
24382;DHT22;12502;50.678;7.172;2023-11-21T17:52:17;9.50;99.90
24382;DHT22;12502;50.678;7.172;2023-11-21T17:57:21;9.50;99.90
24382;DHT22;12502;50.678;7.172;2023-11-21T18:02:23;9.50;99.90
24382;DHT22;12502;50.678;7.172;2023-11-21T18:07:25;9.40;99.90
24382;DHT22;12502;50.678;7.172;2023-11-21T18:12:27;9.40;99.90
24382;DHT22;12502;50.678;7.172;2023-11-21T18:17:29;9.40;99.90
24382;DHT22;12502;50.678;7.172;2023-11-21T18:22:30;9.40;99.90
24382;DHT22;12502;50.678;7.172;2023-11-21T18:27:33;9.30;99.90
24382;DHT22;12502;50.678;7.172;2023-11-21T18:32:34;9.20;99.90
24382;DHT22;12502;50.678;7.172;2023-11-21T18:37:36;9.10;99.90
24382;DHT22;12502;50.678;7.172;2023-11-21T18:42:39;9.00;99.90
24382;DHT22;12502;50.678;7.172;2023-11-21T18:47:43;8.80;99.90
24382;DHT22;12502;50.678;7.172;2023-11-21T18:52:45;8.70;99.90
24382;DHT22;12502;50.678;7.172;2023-11-21T18:57:47;8.70;99.90
24382;DHT22;12502;50.678;7.172;2023-11-21T19:02:49;8.60;99.90
24382;DHT22;12502;50.678;7.172;2023-11-21T19:07:51;8.50;99.90
24382;DHT22;12502;50.678;7.172;2023-11-21T19:12:54;8.40;99.90
24382;DHT22;12502;50.678;7.172;2023-11-21T19:17:57;8.40;99.90
24382;DHT22;12502;50.678;7.172;2023-11-21T19:23:00;8.40;99.90
24382;DHT22;12502;50.678;7.172;2023-11-21T19:28:02;8.40;99.90
24382;DHT22;12502;50.678;7.172;2023-11-21T19:33:04;8.30;99.90
24382;DHT22;12502;50.678;7.172;2023-11-21T19:38:12;8.20;99.90
24382;DHT22;12502;50.678;7.172;2023-11-21T19:43:14;8.10;99.90
24382;DHT22;12502;50.678;7.172;2023-11-21T19:48:16;8.00;99.90
24382;DHT22;12502;50.678;7.172;2023-11-21T19:53:21;7.90;99.90
24382;DHT22;12502;50.678;7.172;2023-11-21T19:58:23;7.90;99.90
24382;DHT22;12502;50.678;7.172;2023-11-21T20:03:26;7.80;99.90
24382;DHT22;12502;50.678;7.172;2023-11-21T20:08:37;7.80;99.90
24382;DHT22;12502;50.678;7.172;2023-11-21T20:13:40;7.70;99.90
24382;DHT22;12502;50.678;7.172;2023-11-21T20:18:42;7.70;99.90
24382;DHT22;12502;50.678;7.172;2023-11-21T20:23:56;7.60;99.90
24382;DHT22;12502;50.678;7.172;2023-11-21T20:29:01;7.50;99.90
24382;DHT22;12502;50.678;7.172;2023-11-21T20:34:03;7.40;99.90
24382;DHT22;12502;50.678;7.172;2023-11-21T20:39:06;7.40;99.90
24382;DHT22;12502;50.678;7.172;2023-11-21T20:44:08;7.40;99.90
24382;DHT22;12502;50.678;7.172;2023-11-21T20:49:10;7.30;99.90
24382;DHT22;12502;50.678;7.172;2023-11-21T20:54:12;7.30;99.90
24382;DHT22;12502;50.678;7.172;2023-11-21T21:04:37;7.20;99.90
24382;DHT22;12502;50.678;7.172;2023-11-21T21:09:53;7.20;99.90
24382;DHT22;12502;50.678;7.172;2023-11-21T21:14:56;7.20;99.90
24382;DHT22;12502;50.678;7.172;2023-11-21T21:31:54;7.00;99.90
24382;DHT22;12502;50.678;7.172;2023-11-21T21:36:56;7.00;99.90
24382;DHT22;12502;50.678;7.172;2023-11-21T21:47:29;7.10;99.90
24382;DHT22;12502;50.678;7.172;2023-11-21T21:52:35;7.00;99.90
24382;DHT22;12502;50.678;7.172;2023-11-21T22:03:41;7.00;99.90
24382;DHT22;12502;50.678;7.172;2023-11-21T22:08:43;7.00;99.90
24382;DHT22;12502;50.678;7.172;2023-11-21T22:13:44;7.00;99.90
24382;DHT22;12502;50.678;7.172;2023-11-21T22:18:46;6.90;99.90
24382;DHT22;12502;50.678;7.172;2023-11-21T22:23:48;7.20;99.90
24382;DHT22;12502;50.678;7.172;2023-11-21T22:28:50;6.90;99.90
24382;DHT22;12502;50.678;7.172;2023-11-21T22:33:52;7.00;99.90
24382;DHT22;12502;50.678;7.172;2023-11-21T22:38:56;6.90;99.90
24382;DHT22;12502;50.678;7.172;2023-11-21T22:49:27;6.80;99.90
24382;DHT22;12502;50.678;7.172;2023-11-21T23:00:36;6.70;99.90
24382;DHT22;12502;50.678;7.172;2023-11-21T23:05:38;6.60;99.90
24382;DHT22;12502;50.678;7.172;2023-11-21T23:10:43;6.50;99.90
24382;DHT22;12502;50.678;7.172;2023-11-21T23:15:45;6.40;99.90
24382;DHT22;12502;50.678;7.172;2023-11-21T23:20:57;6.40;99.90
24382;DHT22;12502;50.678;7.172;2023-11-21T23:25:58;6.20;99.90
24382;DHT22;12502;50.678;7.172;2023-11-21T23:31:02;6.10;99.90
24382;DHT22;12502;50.678;7.172;2023-11-21T23:36:04;6.00;99.90
24382;DHT22;12502;50.678;7.172;2023-11-21T23:41:05;6.00;99.90
24382;DHT22;12502;50.678;7.172;2023-11-21T23:46:07;5.90;99.90
24382;DHT22;12502;50.678;7.172;2023-11-21T23:51:11;5.70;99.90
24382;DHT22;12502;50.678;7.172;2023-11-21T23:56:13;5.70;99.90
